Historyczne dane pomiarowe

Dodano dane terminowe – wersja testowa.

Dane z okresu 1951-2019

Wersja bazy: 1.34 [2019-03-16, lista zmian], aktualizacja planowana na 2019-04-15

Dane meteo z obszaru Polski uzyskane na podstawie danych udostępnionych przez Instytut Meteorologii i Gospodarki Wodnej – Państwowy Instytut Badawczy.

 

Wybierz Datę:    

       

TemperaturaWilgotnośćWiatrCiśnienieOpadyŚniegCzas trwania zjawisk
 Stacja t tx tn tng RH VA  wxwx mslp ppp RRR   cm mm wxwxwxwxwxwxwx
2006-06-13 19.5 25.0 10.4 6.1--- 3.0---- 0.0--x---------
2006-06-14 19.4 25.5 9.5 6.4--- 2.7---- 0.0--x---------
2006-06-15 20.1 29.5 9.5 7.5--- 2.7---- 4.7--x---------
2006-06-16 20.6 26.8 13.9 12.4--- 2.7---- 0.0--x---------
2006-06-17 20.4 27.9 13.9 9.7--- 3.0---- 8.4--x---------
2006-06-18 18.0 21.6 15.3 15.2--- 2.7---- 0.0--x---------
2006-06-19 19.0 25.1 10.7 8.8--- 1.3---- 1.1--x---------
2006-06-20 23.1 29.5 13.4 9.9--- 1.7---- 0.2--x---------
2006-06-21 25.9 31.3 20.2 17.2--- 3.3---- 7.9--x---------
2006-06-22 23.8 30.3 18.4 17.5--- 2.3---- 2.0--x---------
2006-06-23 20.0 24.4 17.0 14.2--- 3.3---- 0.1--x---------
2006-06-24 19.3 24.0 13.2 10.3--- 3.7---- 0.1--x---------
2006-06-25 21.9 28.1 12.3 9.9--- 3.3---- 0.2--x---------
2006-06-26 25.1 32.9 18.9 17.0--- 5.3---- 18.4--x---------
2006-06-27 25.8 30.9 20.6 19.2--- 3.3---- 0.2--x---------
2006-06-28 23.3 28.4 18.8 18.8--- 2.7---- 0.2--x---------
2006-06-29 19.9 24.9 16.2 16.2--- 3.3---- 0.0--x---------
2006-06-30 19.9 24.6 13.8 13.0--- 4.0---- 0.2--x---------
2006-07-01 20.9 26.3 15.2 13.5--- 6.0---- 0.0--x---------
2006-07-02 21.0 26.9 12.7 9.0--- 4.3---- 0.0--x---------
2006-07-03 20.9 26.2 13.7 9.9--- 4.7---- 0.5--x---------
2006-07-04 22.6 28.7 12.6 7.8--- 2.7---- 0.1--x---------
2006-07-05 24.3 30.9 14.2 9.9--- 2.7---- 0.1--x---------
2006-07-06 26.0 31.7 17.5 13.3--- 2.7---- 0.0--x---------
2006-07-07 27.0 32.6 20.1 16.2--- 2.0---- 0.0--x---------
2006-07-08 26.9 33.4 17.3 13.9--- 2.3---- 0.0--x---------
2006-07-09 25.5 32.9 17.3 15.3--- 1.3---- 1.2--x---------
2006-07-10 27.5 34.5 19.5 17.1--- 1.3---- 0.1--x---------
2006-07-11 27.2 33.6 20.2 18.2--- 1.7---- 0.0--x---------
2006-07-12 27.8 33.3 22.6 19.8--- 4.0---- 11.9--x---------
94.7 ms

 

Źródłem pochodzenia danych jest Instytut Meteorologii i Gospodarki Wodnej – Państwowy Instytut Badawczy. Dane Instytutu Meteorologii i Gospodarki Wodnej – Państwowego Instytutu Badawczego zostały przetworzone.

Dane źródłowe można odnaleźć na stronie https://dane.imgw.pl